CheckWX is a tool to help pilots better visualize weather data.  It is not intended as a substitute for an official pre-flight weather briefing.

10:51:53 UTC

LUKK TAF
Chişinău International Airport
Chişinău, Moldova
TAF LUKK 260520Z 2606/2706 03009KT CAVOK

Jun-26@
06:00 UTC

Jun-26 @ 06:00 UTC

Jun-27@
06:00 UTC

Jun-27 @ 06:00 UTC

TAF LUKK 260520Z 2606/2706 03009KT CAVOK
Wind
  • 030° at 9 KTS
Conditions
No significant weather
Cloud Levels
  • No significant clouds